DW9569 Weather Reports


Display with metric or nautical units.
time (UTC)temp
F
wind
direction
speed
MPH
gust
MPH
rain 1hr
in
rain 24hr
in
rain mn
in
humidity
%
barometer
mb
20201027120043 37 49 4.0 6.0 0.00 0.00 0.00 88 1015.0
20201027114539 37 42 3.0 5.0 0.00 0.00 0.00 88 1015.4
20201027113033 37 336 1.0 3.0 0.00 0.00 0.00 88 1015.8
20201027111638 37 336 2.0 5.0 0.00 0.00 0.00 88 1016.8
20201027110229 37 338 5.0 8.0 0.00 0.00 0.00 88 1017.0
20201027104638 37 281 3.0 4.0 0.00 0.00 0.00 86 1017.3
20201027103110 37 269 2.0 3.0 0.00 0.00 0.00 85 1017.7
20201027101703 38 269 0.0 3.0 0.00 0.00 0.00 83 1017.6
20201027100107 38 269 1.0 6.0 0.00 0.00 0.00 83 1017.9
20201027094627 38 264 0.0 2.0 0.00 0.00 0.00 83 1018.1
20201027093116 38 264 1.0 2.0 0.00 0.00 0.00 82 1018.4
20201027091545 38 263 0.0 2.0 0.00 0.00 0.00 82 1019.0
20201027090022 38 263 2.0 4.0 0.00 0.00 0.00 81 1019.2
20201027084721 38 240 1.0 4.0 0.00 0.00 0.00 81 1019.8
20201027083216 38 238 2.0 8.0 0.00 0.00 0.00 80 1020.2
20201027081611 38 238 4.0 7.0 0.00 0.00 0.00 80 1020.5
20201027080105 38 228 3.0 5.0 0.00 0.00 0.00 79 1020.6
20201027074540 38 240 3.0 6.0 0.00 0.00 0.00 79 1020.8
20201027073023 38 207 4.0 7.0 0.00 0.00 0.00 79 1020.8
20201027071532 38 207 3.0 6.0 0.00 0.00 0.00 80 1020.9
20201027070032 38 245 0.0 2.0 0.00 0.00 0.00 80 1021.0
20201027064543 38 245 0.0 3.0 0.00 0.00 0.00 79 1021.4
20201027063023 38 243 3.0 5.0 0.00 0.00 0.00 78 1022.0
20201027061655 38 243 2.0 5.0 0.00 0.00 0.00 78 1022.3
20201027060219 38 238 4.0 7.0 0.00 0.00 0.00 78 1022.6
20201027054644 38 253 3.0 6.0 0.00 0.00 0.00 77 1023.1
20201027053133 38 257 4.0 7.0 0.00 0.00 0.00 77 1023.2
20201027051740 38 238 3.0 8.0 0.00 0.00 0.00 76 1023.1
20201027050256 38 228 3.0 7.0 0.00 0.00 0.00 75 1023.2
20201027044655 38 267 3.0 5.0 0.00 0.00 0.00 75 1023.3
20201027043150 38 268 5.0 9.0 0.00 0.00 0.00 74 1023.2
20201027041618 38 251 4.0 7.0 0.00 0.00 0.00 73 1023.4
20201027040144 38 273 4.0 6.0 0.00 0.00 0.00 73 1023.3
20201027034655 38 271 3.0 6.0 0.00 0.00 0.00 71 1023.6
20201027033110 38 235 0.0 1.0 0.00 0.00 0.00 73 1023.9
20201027031539 38 235 2.0 5.0 0.00 0.00 0.00 71 1024.2
20201027030021 38 240 3.0 7.0 0.00 0.00 0.00 71 1024.5
20201027024521 38 239 6.0 8.0 0.00 0.00 0.00 72 1024.7
20201027023044 38 231 4.0 7.0 0.00 0.00 0.00 71 1024.4
20201027021518 38 245 3.0 6.0 0.00 0.00 0.00 70 1024.8
20201027020034 39 240 3.0 6.0 0.00 0.00 0.00 69 1025.0
20201027013119 39 234 7.0 10.0 0.00 0.00 0.00 67 1025.9
20201027011831 39 232 5.0 9.0 0.00 0.00 0.00 68 1026.2
20201027010328 39 233 4.0 12.0 0.00 0.00 0.00 67 1026.1
20201027004657 38 226 6.0 12.0 0.00 0.00 0.00 67 1026.1
20201027003151 38 231 6.0 10.0 0.00 0.00 0.00 68 1026.2
20201027001622 38 222 6.0 10.0 0.00 0.00 0.00 69 1026.0
20201027000138 38 231 7.0 12.0 0.00 0.00 0.00 69 1026.3
20201026234621 38 230 6.0 12.0 0.00 0.00 0.00 69 1026.2
20201026233054 38 238 8.0 13.0 0.00 0.00 0.00 68 1026.7
20201026231633 38 246 6.0 13.0 0.00 0.00 0.00 66 1026.5
20201026230145 37 224 6.0 11.0 0.00 0.00 0.00 62 1026.4
20201026224603 36 256 3.0 7.0 0.00 0.00 0.00 64 1026.5
20201026223113 36 262 4.0 6.0 0.00 0.00 0.00 63 1026.4
20201026221627 35 264 4.0 6.0 0.00 0.00 0.00 64 1026.3
20201026220104 36 276 5.0 8.0 0.00 0.00 0.00 62 1026.5
20201026214623 35 271 3.0 5.0 0.00 0.00 0.00 66 1026.4
20201026213036 35 276 5.0 8.0 0.00 0.00 0.00 67 1026.4
20201026211602 34 283 3.0 7.0 0.00 0.00 0.00 69 1026.8
20201026210047 35 287 4.0 8.0 0.00 0.00 0.00 67 1027.0
20201026204534 35 288 4.0 6.0 0.00 0.00 0.00 66 1027.3
20201026203036 37 277 4.0 7.0 0.00 0.00 0.00 63 1027.6
20201026201545 38 271 3.0 8.0 0.00 0.00 0.00 61 1027.7
20201026200102 39 264 3.0 7.0 0.00 0.00 0.00 58 1027.4
20201026194530 40 266 6.0 14.0 0.00 0.00 0.00 54 1027.3
20201026193129 41 255 7.0 12.0 0.00 0.00 0.00 53 1027.4
20201026191630 41 257 8.0 15.0 0.00 0.00 0.00 52 1027.3
20201026190125 41 239 9.0 15.0 0.00 0.00 0.00 52 1027.0
20201026184640 42 243 9.0 15.0 0.00 0.00 0.00 49 1026.8
20201026183153 42 283 8.0 15.0 0.00 0.00 0.00 48 1026.4
20201026181557 42 266 10.0 17.0 0.00 0.00 0.00 49 1026.4
20201026180042 42 269 9.0 16.0 0.00 0.00 0.00 48 1026.2
20201026174617 42 294 9.0 16.0 0.00 0.00 0.00 49 1026.2
20201026173143 41 285 13.0 18.0 0.00 0.00 0.00 49 1026.3
20201026171535 41 283 12.0 17.0 0.00 0.00 0.00 50 1026.5
20201026170028 40 276 12.0 16.0 0.00 0.00 0.00 51 1026.6
20201026164550 40 287 11.0 18.0 0.00 0.00 0.00 51 1026.7
20201026163142 40 259 9.0 16.0 0.00 0.00 0.00 53 1026.6
20201026161652 40 288 12.0 21.0 0.00 0.00 0.00 53 1026.3
20201026160137 41 283 9.0 16.0 0.00 0.00 0.00 53 1026.7
20201026154628 40 274 10.0 18.0 0.00 0.00 0.00 53 1026.7
20201026153234 40 282 11.0 17.0 0.00 0.00 0.00 53 1026.6
20201026151620 40 295 12.0 21.0 0.00 0.00 0.00 55 1026.6
20201026150228 40 299 13.0 18.0 0.00 0.00 0.00 56 1026.7
20201026144558 39 274 15.0 22.0 0.00 0.00 0.00 55 1026.7
20201026143058 39 276 15.0 21.0 0.00 0.00 0.00 55 1026.7
20201026141608 39 288 13.0 22.0 0.00 0.00 0.00 58 1026.7
20201026140059 39 269 12.0 21.0 0.00 0.00 0.00 60 1026.6
20201026134629 39 285 14.0 24.0 0.00 0.00 0.00 59 1026.6
20201026133038 38 297 13.0 22.0 0.00 0.00 0.00 62 1026.2
20201026131529 38 307 16.0 26.0 0.00 0.00 0.00 63 1025.8
20201026130049 38 288 14.0 23.0 0.00 0.00 0.00 63 1025.8
20201026124550 38 298 17.0 23.0 0.00 0.00 0.00 63 1025.7
20201026123025 37 291 16.0 25.0 0.00 0.00 0.00 63 1025.6
20201026121739 37 314 15.0 27.0 0.00 0.00 0.00 65 1025.5